Gentry, AR

2:21 PM CDT on September 01, 2014 (GMT -0500)
1/2 Mile South of Gentry | Change Station
CLOSE
Current Station
Personal Weather Station
Location: Gentry, AR
Elevation: 1225 ft
Nearby Weather Stations

Elev 1225 ft 36.26 °N, 94.49 °W | Updated 4 days ago

Thunderstorm
Thunderstorm
90 °F
Feels Like 95 °F
N
22
Wind Variable Wind from South
Gusts 29 mph

Today
High -- | Low -- °F
--% Chance of Precip.
Yesterday
High -- | Low -- °F
Precip. -- in
6:49 AM 7:45 PM
Waxing Crescent, 43% visible
Pressure 29.88 in
Visibility 10.0 miles
Clouds Clear
Heat Index 95 °F
Dew Point 70 °F
Humidity 50%
Rainfall 0.00 in
Snow Depth Not available.
UV 10 out of 12
Pollen 10.90 out of 12
Air Quality Not available.
Flu Activity Not available.
METAR KXNA 011853Z 18014G21KT 10SM CLR 30/21 A2993 RMK AO2 SLP116 T03000211 $

More Conditions Fewer Conditions

Pressure 29.88 in
Visibility 10.0 miles
Clouds Clear
Heat Index 95 °F
Dew Point 70 °F
Humidity 50%
Rainfall 0.00 in
Snow Depth Not available.
UV 10 out of 12
Pollen 10.90 out of 12
Air Quality Not available.
Flu Activity Not available.
METAR KXNA 011853Z 18014G21KT 10SM CLR 30/21 A2993 RMK AO2 SLP116 T03000211 $

More Conditions Fewer Conditions

10-Day Weather Forecast

Almanac

Astronomy

Sep. 01, 2014 Rise Set
Actual Time 6:49 AM CDT 7:45 PM CDT
Civil Twilight 6:23 AM CDT 8:11 PM CDT
Nautical Twilight 5:52 AM CDT 8:43 PM CDT
Astronomical Twilight 5:19 AM CDT 9:15 PM CDT
Moon 1:24 PM CDT 11:59 PM CDT
Length of Visible Light 13h 48m
Length of Day
12h 56m
Tomorrow will be 2m 12s shorter.
Waxing Crescent, 43% of the Moon is Illuminated
Today
Waxing Crescent
Sep 2
First Quarter
Sep 8
Full
Sep 15
Last Quarter
Sep 24
New

Today's Extremes

State Highs State Lows

Community

WunderPhotos

Upload Photos

1,749,378 photos uploaded!

WunderBlogs® & News

Nearby

Snow Depth

Station Depth Elevation
No new snow has been reported.

Earthquake Activity

City Distance Mag. Time & Date
No recent earthquake activity has been reported nearby.
Minimum magnitude displayed is 2.5.

Coastal Water Temperatures

Place Temperature
No Stations Reporting

Nearby Weather Stations